Ahmeek, Michigan
Current Conditions -  °F | °C
As of 5:53 PM on Saturday 25 Oct 2014 (Local Time) from KCMX Reporting Station
Clear Clear  
Wind Chill: 51°   Ceiling: Unl
Heat Index: 51°   Visibility: 10mi
Dew Point: 33°   Wind: 23mph
Humidity: 50%   Direction: 290°WNW
Pressure: 29.76"   Gusts: 36mph
Location:  47.3°N, 88.4°W
Report Text: KCMX 252153Z AUTO 29020G31KT 10SM CLR 11/01 A2976 RMK AO2 PK WND 28033/2105 SLP083 T01060006
Loading
Personal Weather Stations






























Interactive Weather Map
Tropical Storm Tracking
New forecast layout! Learn more

10-Day Weather Forecast

Advertisements
Track Severe Weather on mobile